Terminal Aerodrome Forecast
Issued by NWS

Home | Current Version | Previous Version | Text Only | Print | Product List | Glossary On
Versions: 1 2 3 4 5 6 7 8 9 10 11 12 13 14 15 16 17 18 19
000
FTUS41 KBGM 222042 AAA
TAFRME
TAF AMD
KRME 222042Z 2221/2318 10008KT 5SM BR OVC015
     FM230000 12010KT 4SM -DZ BR OVC015
     FM230600 12010KT 3SM -RA BR OVC007=

USA.gov is the U.S. government's official web portal to all federal, state and local government web resources and services.